sensor_id;sensor_type;location;lat;lon;timestamp;P1;durP1;ratioP1;P2;durP2;ratioP2
45522;SDS011;31254;51.680;5.394;2023-02-28T00:01:31;9.83;;;4.43;;
45522;SDS011;31254;51.680;5.394;2023-02-28T00:04:01;9.27;;;4.90;;
45522;SDS011;31254;51.680;5.394;2023-02-28T00:06:28;8.27;;;4.30;;
45522;SDS011;31254;51.680;5.394;2023-02-28T00:08:54;8.07;;;4.93;;
45522;SDS011;31254;51.680;5.394;2023-02-28T00:11:24;9.97;;;4.43;;
45522;SDS011;31254;51.680;5.394;2023-02-28T00:13:51;7.73;;;4.63;;
45522;SDS011;31254;51.680;5.394;2023-02-28T00:16:18;8.10;;;4.60;;
45522;SDS011;31254;51.680;5.394;2023-02-28T00:18:47;6.97;;;4.57;;
45522;SDS011;31254;51.680;5.394;2023-02-28T00:21:14;6.93;;;4.17;;
45522;SDS011;31254;51.680;5.394;2023-02-28T00:23:42;6.87;;;4.47;;
45522;SDS011;31254;51.680;5.394;2023-02-28T00:26:12;10.00;;;4.80;;
45522;SDS011;31254;51.680;5.394;2023-02-28T00:28:39;8.27;;;4.87;;
45522;SDS011;31254;51.680;5.394;2023-02-28T00:31:05;7.40;;;4.57;;
45522;SDS011;31254;51.680;5.394;2023-02-28T00:33:32;8.67;;;5.27;;
45522;SDS011;31254;51.680;5.394;2023-02-28T00:36:05;12.03;;;5.17;;
45522;SDS011;31254;51.680;5.394;2023-02-28T00:38:33;11.83;;;4.53;;
45522;SDS011;31254;51.680;5.394;2023-02-28T00:41:03;9.30;;;5.17;;
45522;SDS011;31254;51.680;5.394;2023-02-28T00:43:36;11.20;;;5.57;;
45522;SDS011;31254;51.680;5.394;2023-02-28T00:46:04;8.50;;;4.43;;
45522;SDS011;31254;51.680;5.394;2023-02-28T00:48:31;9.10;;;4.87;;
45522;SDS011;31254;51.680;5.394;2023-02-28T00:50:58;8.23;;;4.37;;
45522;SDS011;31254;51.680;5.394;2023-02-28T00:53:25;8.83;;;4.80;;
45522;SDS011;31254;51.680;5.394;2023-02-28T00:55:54;8.27;;;4.93;;
45522;SDS011;31254;51.680;5.394;2023-02-28T00:58:23;10.63;;;4.83;;
45522;SDS011;31254;51.680;5.394;2023-02-28T01:00:50;11.43;;;5.03;;
45522;SDS011;31254;51.680;5.394;2023-02-28T01:03:19;10.63;;;4.93;;
45522;SDS011;31254;51.680;5.394;2023-02-28T01:05:49;7.40;;;4.40;;
45522;SDS011;31254;51.680;5.394;2023-02-28T01:08:17;8.83;;;4.83;;
45522;SDS011;31254;51.680;5.394;2023-02-28T01:10:43;8.83;;;4.50;;
45522;SDS011;31254;51.680;5.394;2023-02-28T01:13:10;16.80;;;4.70;;
45522;SDS011;31254;51.680;5.394;2023-02-28T01:15:38;8.17;;;4.67;;
45522;SDS011;31254;51.680;5.394;2023-02-28T01:18:09;7.97;;;4.87;;
45522;SDS011;31254;51.680;5.394;2023-02-28T01:20:36;9.20;;;4.43;;
45522;SDS011;31254;51.680;5.394;2023-02-28T01:23:03;10.07;;;4.90;;
45522;SDS011;31254;51.680;5.394;2023-02-28T01:25:30;9.53;;;4.20;;
45522;SDS011;31254;51.680;5.394;2023-02-28T01:27:57;9.30;;;4.87;;
45522;SDS011;31254;51.680;5.394;2023-02-28T01:30:26;7.73;;;4.50;;
45522;SDS011;31254;51.680;5.394;2023-02-28T01:32:52;6.90;;;4.30;;
45522;SDS011;31254;51.680;5.394;2023-02-28T01:35:19;9.53;;;4.43;;
45522;SDS011;31254;51.680;5.394;2023-02-28T01:37:46;8.93;;;5.20;;
45522;SDS011;31254;51.680;5.394;2023-02-28T01:40:14;7.00;;;4.47;;
45522;SDS011;31254;51.680;5.394;2023-02-28T01:42:41;9.93;;;5.10;;
45522;SDS011;31254;51.680;5.394;2023-02-28T01:48:03;7.63;;;4.67;;
45522;SDS011;31254;51.680;5.394;2023-02-28T01:50:38;8.87;;;5.07;;
45522;SDS011;31254;51.680;5.394;2023-02-28T01:53:13;11.87;;;5.00;;
45522;SDS011;31254;51.680;5.394;2023-02-28T01:55:45;8.37;;;4.50;;
45522;SDS011;31254;51.680;5.394;2023-02-28T01:58:14;12.63;;;5.20;;
45522;SDS011;31254;51.680;5.394;2023-02-28T02:00:41;8.63;;;4.83;;
45522;SDS011;31254;51.680;5.394;2023-02-28T02:03:10;8.10;;;4.53;;
45522;SDS011;31254;51.680;5.394;2023-02-28T02:05:42;9.30;;;4.93;;
45522;SDS011;31254;51.680;5.394;2023-02-28T02:08:15;9.47;;;5.20;;
45522;SDS011;31254;51.680;5.394;2023-02-28T02:13:47;8.70;;;5.40;;
45522;SDS011;31254;51.680;5.394;2023-02-28T02:16:35;8.63;;;5.40;;
45522;SDS011;31254;51.680;5.394;2023-02-28T02:22:14;8.57;;;4.80;;
45522;SDS011;31254;51.680;5.394;2023-02-28T02:36:20;9.13;;;5.07;;
45522;SDS011;31254;51.680;5.394;2023-02-28T02:39:06;13.40;;;5.10;;
45522;SDS011;31254;51.680;5.394;2023-02-28T02:41:58;7.40;;;4.97;;
45522;SDS011;31254;51.680;5.394;2023-02-28T02:44:38;11.17;;;4.70;;
45522;SDS011;31254;51.680;5.394;2023-02-28T02:47:12;8.10;;;4.50;;
45522;SDS011;31254;51.680;5.394;2023-02-28T02:49:49;6.67;;;4.43;;
45522;SDS011;31254;51.680;5.394;2023-02-28T02:52:20;8.77;;;4.97;;
45522;SDS011;31254;51.680;5.394;2023-02-28T02:54:52;9.23;;;4.67;;
45522;SDS011;31254;51.680;5.394;2023-02-28T02:57:24;8.77;;;4.40;;
45522;SDS011;31254;51.680;5.394;2023-02-28T02:59:57;8.77;;;4.87;;
45522;SDS011;31254;51.680;5.394;2023-02-28T03:02:26;7.57;;;5.03;;
45522;SDS011;31254;51.680;5.394;2023-02-28T03:05:01;8.80;;;4.70;;
45522;SDS011;31254;51.680;5.394;2023-02-28T03:07:32;10.30;;;5.10;;
45522;SDS011;31254;51.680;5.394;2023-02-28T03:09:59;9.03;;;5.10;;
45522;SDS011;31254;51.680;5.394;2023-02-28T03:12:32;6.60;;;3.80;;
45522;SDS011;31254;51.680;5.394;2023-02-28T03:15:09;8.27;;;4.30;;
45522;SDS011;31254;51.680;5.394;2023-02-28T03:34:01;8.03;;;4.53;;
45522;SDS011;31254;51.680;5.394;2023-02-28T03:36:47;8.50;;;4.40;;
45522;SDS011;31254;51.680;5.394;2023-02-28T03:42:25;9.10;;;4.40;;
45522;SDS011;31254;51.680;5.394;2023-02-28T03:45:16;9.43;;;4.77;;
45522;SDS011;31254;51.680;5.394;2023-02-28T03:50:22;9.17;;;4.93;;
45522;SDS011;31254;51.680;5.394;2023-02-28T03:52:55;8.17;;;4.70;;
45522;SDS011;31254;51.680;5.394;2023-02-28T03:55:28;10.47;;;4.83;;
45522;SDS011;31254;51.680;5.394;2023-02-28T03:58:04;9.63;;;4.47;;
45522;SDS011;31254;51.680;5.394;2023-02-28T04:00:40;9.67;;;4.57;;
45522;SDS011;31254;51.680;5.394;2023-02-28T04:03:12;8.87;;;4.37;;
45522;SDS011;31254;51.680;5.394;2023-02-28T04:05:50;9.57;;;4.83;;
45522;SDS011;31254;51.680;5.394;2023-02-28T04:08:19;11.27;;;4.67;;
45522;SDS011;31254;51.680;5.394;2023-02-28T04:10:56;12.37;;;5.50;;
45522;SDS011;31254;51.680;5.394;2023-02-28T04:13:27;10.37;;;4.97;;
45522;SDS011;31254;51.680;5.394;2023-02-28T04:15:56;10.90;;;5.10;;
45522;SDS011;31254;51.680;5.394;2023-02-28T04:18:23;11.20;;;5.43;;
45522;SDS011;31254;51.680;5.394;2023-02-28T04:20:52;9.07;;;4.57;;
45522;SDS011;31254;51.680;5.394;2023-02-28T04:23:19;8.93;;;4.93;;
45522;SDS011;31254;51.680;5.394;2023-02-28T04:25:45;12.50;;;5.13;;
45522;SDS011;31254;51.680;5.394;2023-02-28T04:28:14;10.70;;;4.83;;
45522;SDS011;31254;51.680;5.394;2023-02-28T04:30:41;8.23;;;4.53;;
45522;SDS011;31254;51.680;5.394;2023-02-28T04:33:12;9.30;;;4.97;;
45522;SDS011;31254;51.680;5.394;2023-02-28T04:35:39;9.03;;;5.00;;
45522;SDS011;31254;51.680;5.394;2023-02-28T04:38:05;7.70;;;4.60;;
45522;SDS011;31254;51.680;5.394;2023-02-28T04:40:32;8.40;;;4.80;;
45522;SDS011;31254;51.680;5.394;2023-02-28T04:43:01;14.17;;;5.23;;
45522;SDS011;31254;51.680;5.394;2023-02-28T04:45:30;8.83;;;4.53;;
45522;SDS011;31254;51.680;5.394;2023-02-28T04:48:00;8.93;;;4.67;;
45522;SDS011;31254;51.680;5.394;2023-02-28T04:50:26;8.03;;;4.60;;
45522;SDS011;31254;51.680;5.394;2023-02-28T04:52:53;8.57;;;4.00;;
45522;SDS011;31254;51.680;5.394;2023-02-28T04:55:20;8.47;;;4.30;;
45522;SDS011;31254;51.680;5.394;2023-02-28T04:57:50;11.30;;;4.50;;
45522;SDS011;31254;51.680;5.394;2023-02-28T05:00:17;9.70;;;3.60;;
45522;SDS011;31254;51.680;5.394;2023-02-28T05:02:43;7.10;;;4.57;;
45522;SDS011;31254;51.680;5.394;2023-02-28T05:05:10;5.70;;;3.87;;
45522;SDS011;31254;51.680;5.394;2023-02-28T05:07:38;8.33;;;4.70;;
45522;SDS011;31254;51.680;5.394;2023-02-28T05:10:04;7.43;;;4.07;;
45522;SDS011;31254;51.680;5.394;2023-02-28T05:12:31;9.17;;;4.70;;
45522;SDS011;31254;51.680;5.394;2023-02-28T05:14:58;8.33;;;3.90;;
45522;SDS011;31254;51.680;5.394;2023-02-28T05:17:25;7.60;;;4.13;;
45522;SDS011;31254;51.680;5.394;2023-02-28T05:19:56;8.53;;;4.17;;
45522;SDS011;31254;51.680;5.394;2023-02-28T05:22:40;8.30;;;4.30;;
45522;SDS011;31254;51.680;5.394;2023-02-28T05:25:13;8.30;;;4.60;;
45522;SDS011;31254;51.680;5.394;2023-02-28T05:27:43;7.70;;;3.90;;
45522;SDS011;31254;51.680;5.394;2023-02-28T05:30:10;6.80;;;3.93;;
45522;SDS011;31254;51.680;5.394;2023-02-28T05:32:40;11.17;;;5.00;;
45522;SDS011;31254;51.680;5.394;2023-02-28T05:35:10;8.33;;;4.70;;
45522;SDS011;31254;51.680;5.394;2023-02-28T05:37:38;8.33;;;5.27;;
45522;SDS011;31254;51.680;5.394;2023-02-28T05:40:05;9.63;;;5.40;;
45522;SDS011;31254;51.680;5.394;2023-02-28T05:42:33;8.57;;;5.03;;
45522;SDS011;31254;51.680;5.394;2023-02-28T05:45:03;11.60;;;4.73;;
45522;SDS011;31254;51.680;5.394;2023-02-28T05:47:33;7.40;;;4.60;;
45522;SDS011;31254;51.680;5.394;2023-02-28T05:50:00;8.30;;;5.10;;
45522;SDS011;31254;51.680;5.394;2023-02-28T05:52:30;9.43;;;4.73;;
45522;SDS011;31254;51.680;5.394;2023-02-28T05:54:57;8.97;;;5.23;;
45522;SDS011;31254;51.680;5.394;2023-02-28T05:57:24;9.60;;;5.00;;
45522;SDS011;31254;51.680;5.394;2023-02-28T05:59:51;8.67;;;5.00;;
45522;SDS011;31254;51.680;5.394;2023-02-28T06:02:17;14.20;;;6.13;;
45522;SDS011;31254;51.680;5.394;2023-02-28T06:04:44;10.70;;;6.70;;
45522;SDS011;31254;51.680;5.394;2023-02-28T06:07:11;10.00;;;6.43;;
45522;SDS011;31254;51.680;5.394;2023-02-28T06:09:41;17.40;;;7.90;;
45522;SDS011;31254;51.680;5.394;2023-02-28T06:12:07;9.63;;;5.03;;
45522;SDS011;31254;51.680;5.394;2023-02-28T06:14:35;9.27;;;5.00;;
45522;SDS011;31254;51.680;5.394;2023-02-28T06:17:02;7.77;;;4.50;;
45522;SDS011;31254;51.680;5.394;2023-02-28T06:19:31;8.17;;;4.63;;
45522;SDS011;31254;51.680;5.394;2023-02-28T06:22:00;8.87;;;4.43;;
45522;SDS011;31254;51.680;5.394;2023-02-28T06:24:29;6.20;;;4.20;;
45522;SDS011;31254;51.680;5.394;2023-02-28T06:26:57;11.87;;;4.33;;
45522;SDS011;31254;51.680;5.394;2023-02-28T06:29:32;8.67;;;4.17;;
45522;SDS011;31254;51.680;5.394;2023-02-28T06:32:08;7.00;;;3.93;;
45522;SDS011;31254;51.680;5.394;2023-02-28T06:34:36;8.03;;;4.70;;
45522;SDS011;31254;51.680;5.394;2023-02-28T06:37:13;5.77;;;3.97;;
45522;SDS011;31254;51.680;5.394;2023-02-28T06:39:42;5.97;;;3.50;;
45522;SDS011;31254;51.680;5.394;2023-02-28T06:42:09;7.63;;;3.50;;
45522;SDS011;31254;51.680;5.394;2023-02-28T06:44:36;7.00;;;3.13;;
45522;SDS011;31254;51.680;5.394;2023-02-28T06:47:05;7.63;;;3.67;;
45522;SDS011;31254;51.680;5.394;2023-02-28T06:49:34;6.43;;;3.17;;
45522;SDS011;31254;51.680;5.394;2023-02-28T06:52:01;5.97;;;3.20;;
45522;SDS011;31254;51.680;5.394;2023-02-28T06:54:28;9.90;;;3.07;;
45522;SDS011;31254;51.680;5.394;2023-02-28T06:56:57;7.87;;;3.97;;
45522;SDS011;31254;51.680;5.394;2023-02-28T06:59:24;6.63;;;3.77;;
45522;SDS011;31254;51.680;5.394;2023-02-28T07:01:51;10.57;;;4.13;;
45522;SDS011;31254;51.680;5.394;2023-02-28T07:04:19;7.97;;;4.10;;
45522;SDS011;31254;51.680;5.394;2023-02-28T07:06:47;6.10;;;3.77;;
45522;SDS011;31254;51.680;5.394;2023-02-28T07:09:17;11.57;;;4.37;;
45522;SDS011;31254;51.680;5.394;2023-02-28T07:11:45;13.00;;;4.07;;
45522;SDS011;31254;51.680;5.394;2023-02-28T07:14:11;7.27;;;3.70;;
45522;SDS011;31254;51.680;5.394;2023-02-28T07:16:41;7.37;;;3.93;;
45522;SDS011;31254;51.680;5.394;2023-02-28T07:19:08;7.57;;;3.50;;
45522;SDS011;31254;51.680;5.394;2023-02-28T07:21:34;6.90;;;3.80;;
45522;SDS011;31254;51.680;5.394;2023-02-28T07:24:03;6.40;;;3.87;;
45522;SDS011;31254;51.680;5.394;2023-02-28T07:26:30;6.77;;;3.60;;
45522;SDS011;31254;51.680;5.394;2023-02-28T07:29:00;6.70;;;3.40;;
45522;SDS011;31254;51.680;5.394;2023-02-28T07:31:36;5.77;;;2.83;;
45522;SDS011;31254;51.680;5.394;2023-02-28T07:34:20;13.40;;;3.17;;
45522;SDS011;31254;51.680;5.394;2023-02-28T07:37:01;3.73;;;2.50;;
45522;SDS011;31254;51.680;5.394;2023-02-28T07:39:30;3.73;;;2.33;;
45522;SDS011;31254;51.680;5.394;2023-02-28T07:41:58;3.77;;;2.13;;
45522;SDS011;31254;51.680;5.394;2023-02-28T07:44:26;4.97;;;2.30;;
45522;SDS011;31254;51.680;5.394;2023-02-28T07:46:55;4.03;;;2.30;;
45522;SDS011;31254;51.680;5.394;2023-02-28T07:49:22;4.50;;;2.60;;
45522;SDS011;31254;51.680;5.394;2023-02-28T07:51:49;5.63;;;2.87;;
45522;SDS011;31254;51.680;5.394;2023-02-28T07:54:20;7.20;;;2.33;;
45522;SDS011;31254;51.680;5.394;2023-02-28T07:56:47;5.60;;;2.33;;
45522;SDS011;31254;51.680;5.394;2023-02-28T07:59:13;4.13;;;2.30;;
45522;SDS011;31254;51.680;5.394;2023-02-28T08:01:40;3.43;;;2.13;;
45522;SDS011;31254;51.680;5.394;2023-02-28T08:04:18;3.40;;;1.93;;
45522;SDS011;31254;51.680;5.394;2023-02-28T08:06:45;4.03;;;1.90;;
45522;SDS011;31254;51.680;5.394;2023-02-28T08:09:14;4.83;;;1.87;;
45522;SDS011;31254;51.680;5.394;2023-02-28T08:11:42;5.60;;;2.47;;
45522;SDS011;31254;51.680;5.394;2023-02-28T08:14:11;5.17;;;2.30;;
45522;SDS011;31254;51.680;5.394;2023-02-28T08:16:38;3.43;;;2.20;;
45522;SDS011;31254;51.680;5.394;2023-02-28T08:19:04;8.20;;;2.43;;
45522;SDS011;31254;51.680;5.394;2023-02-28T08:21:31;4.37;;;1.70;;
45522;SDS011;31254;51.680;5.394;2023-02-28T08:24:05;4.83;;;2.43;;
45522;SDS011;31254;51.680;5.394;2023-02-28T08:26:33;4.40;;;2.47;;
45522;SDS011;31254;51.680;5.394;2023-02-28T08:29:01;4.20;;;2.70;;
45522;SDS011;31254;51.680;5.394;2023-02-28T08:31:31;4.37;;;2.17;;
45522;SDS011;31254;51.680;5.394;2023-02-28T08:33:59;5.20;;;2.20;;
45522;SDS011;31254;51.680;5.394;2023-02-28T08:36:26;4.83;;;2.47;;
45522;SDS011;31254;51.680;5.394;2023-02-28T08:38:55;4.60;;;2.40;;
45522;SDS011;31254;51.680;5.394;2023-02-28T08:41:22;3.47;;;2.20;;
45522;SDS011;31254;51.680;5.394;2023-02-28T08:43:49;4.20;;;2.00;;
45522;SDS011;31254;51.680;5.394;2023-02-28T08:46:20;2.37;;;1.70;;
45522;SDS011;31254;51.680;5.394;2023-02-28T08:48:47;6.07;;;2.00;;
45522;SDS011;31254;51.680;5.394;2023-02-28T08:51:14;3.40;;;1.80;;
45522;SDS011;31254;51.680;5.394;2023-02-28T08:53:45;2.90;;;1.67;;
45522;SDS011;31254;51.680;5.394;2023-02-28T08:56:35;5.40;;;1.90;;
45522;SDS011;31254;51.680;5.394;2023-02-28T08:59:05;3.70;;;1.73;;
45522;SDS011;31254;51.680;5.394;2023-02-28T09:01:38;4.30;;;2.20;;
45522;SDS011;31254;51.680;5.394;2023-02-28T09:04:08;3.43;;;1.50;;
45522;SDS011;31254;51.680;5.394;2023-02-28T09:06:46;2.83;;;1.50;;
45522;SDS011;31254;51.680;5.394;2023-02-28T09:09:17;2.17;;;1.50;;
45522;SDS011;31254;51.680;5.394;2023-02-28T09:11:48;1.63;;;1.37;;
45522;SDS011;31254;51.680;5.394;2023-02-28T09:14:15;5.10;;;1.33;;
45522;SDS011;31254;51.680;5.394;2023-02-28T09:16:46;2.60;;;1.30;;
45522;SDS011;31254;51.680;5.394;2023-02-28T09:19:14;4.17;;;1.60;;
45522;SDS011;31254;51.680;5.394;2023-02-28T09:21:41;2.37;;;1.50;;
45522;SDS011;31254;51.680;5.394;2023-02-28T09:24:08;4.00;;;1.30;;
45522;SDS011;31254;51.680;5.394;2023-02-28T09:26:40;3.43;;;1.63;;
45522;SDS011;31254;51.680;5.394;2023-02-28T09:29:16;1.93;;;1.53;;
45522;SDS011;31254;51.680;5.394;2023-02-28T09:31:43;2.83;;;1.63;;
45522;SDS011;31254;51.680;5.394;2023-02-28T09:34:13;3.47;;;1.80;;
45522;SDS011;31254;51.680;5.394;2023-02-28T09:36:39;3.17;;;1.50;;
45522;SDS011;31254;51.680;5.394;2023-02-28T09:39:11;3.30;;;1.40;;
45522;SDS011;31254;51.680;5.394;2023-02-28T09:41:40;1.90;;;1.27;;
45522;SDS011;31254;51.680;5.394;2023-02-28T09:44:22;2.60;;;1.67;;
45522;SDS011;31254;51.680;5.394;2023-02-28T09:46:52;3.35;;;1.40;;
45522;SDS011;31254;51.680;5.394;2023-02-28T09:49:28;2.25;;;1.23;;
45522;SDS011;31254;51.680;5.394;2023-02-28T09:54:31;2.67;;;1.30;;
45522;SDS011;31254;51.680;5.394;2023-02-28T09:59:54;2.60;;;1.45;;
45522;SDS011;31254;51.680;5.394;2023-02-28T10:05:18;2.03;;;1.27;;
45522;SDS011;31254;51.680;5.394;2023-02-28T10:10:23;2.50;;;1.40;;
45522;SDS011;31254;51.680;5.394;2023-02-28T10:12:55;2.50;;;1.40;;
45522;SDS011;31254;51.680;5.394;2023-02-28T10:15:25;1.60;;;1.23;;
45522;SDS011;31254;51.680;5.394;2023-02-28T10:18:00;1.67;;;1.30;;
45522;SDS011;31254;51.680;5.394;2023-02-28T10:20:38;5.67;;;1.40;;
45522;SDS011;31254;51.680;5.394;2023-02-28T10:25:37;2.73;;;1.60;;
45522;SDS011;31254;51.680;5.394;2023-02-28T10:28:09;2.43;;;1.40;;
45522;SDS011;31254;51.680;5.394;2023-02-28T10:30:41;3.33;;;1.50;;
45522;SDS011;31254;51.680;5.394;2023-02-28T10:33:17;2.17;;;1.43;;
45522;SDS011;31254;51.680;5.394;2023-02-28T10:35:45;2.63;;;1.47;;
45522;SDS011;31254;51.680;5.394;2023-02-28T10:38:18;2.07;;;1.43;;
45522;SDS011;31254;51.680;5.394;2023-02-28T10:43:33;2.53;;;1.60;;
45522;SDS011;31254;51.680;5.394;2023-02-28T10:48:59;4.60;;;1.70;;
45522;SDS011;31254;51.680;5.394;2023-02-28T10:51:39;2.00;;;1.33;;
45522;SDS011;31254;51.680;5.394;2023-02-28T10:54:16;3.47;;;1.63;;
45522;SDS011;31254;51.680;5.394;2023-02-28T10:59:43;2.63;;;1.57;;
45522;SDS011;31254;51.680;5.394;2023-02-28T11:04:55;2.65;;;1.42;;
45522;SDS011;31254;51.680;5.394;2023-02-28T11:07:22;2.08;;;1.55;;
45522;SDS011;31254;51.680;5.394;2023-02-28T11:09:56;3.65;;;1.67;;
45522;SDS011;31254;51.680;5.394;2023-02-28T11:15:27;3.85;;;1.52;;
45522;SDS011;31254;51.680;5.394;2023-02-28T11:17:59;3.17;;;1.77;;
45522;SDS011;31254;51.680;5.394;2023-02-28T11:20:34;3.80;;;1.58;;
45522;SDS011;31254;51.680;5.394;2023-02-28T11:23:04;4.53;;;1.67;;
45522;SDS011;31254;51.680;5.394;2023-02-28T11:25:38;2.10;;;1.23;;
45522;SDS011;31254;51.680;5.394;2023-02-28T11:28:06;3.08;;;1.77;;
45522;SDS011;31254;51.680;5.394;2023-02-28T11:33:40;2.63;;;1.65;;
45522;SDS011;31254;51.680;5.394;2023-02-28T11:36:18;7.45;;;1.60;;
45522;SDS011;31254;51.680;5.394;2023-02-28T11:38:51;3.33;;;1.27;;
45522;SDS011;31254;51.680;5.394;2023-02-28T11:41:58;2.63;;;1.40;;
45522;SDS011;31254;51.680;5.394;2023-02-28T11:50:01;4.55;;;1.55;;
45522;SDS011;31254;51.680;5.394;2023-02-28T11:52:53;3.00;;;1.73;;
45522;SDS011;31254;51.680;5.394;2023-02-28T11:55:36;3.42;;;1.80;;
45522;SDS011;31254;51.680;5.394;2023-02-28T11:58:27;2.35;;;1.65;;
45522;SDS011;31254;51.680;5.394;2023-02-28T12:11:33;6.97;;;1.42;;
45522;SDS011;31254;51.680;5.394;2023-02-28T12:20:02;2.72;;;1.50;;
45522;SDS011;31254;51.680;5.394;2023-02-28T12:22:32;2.25;;;1.38;;
45522;SDS011;31254;51.680;5.394;2023-02-28T12:28:09;3.42;;;1.90;;
45522;SDS011;31254;51.680;5.394;2023-02-28T12:30:49;2.38;;;1.50;;
45522;SDS011;31254;51.680;5.394;2023-02-28T12:33:24;4.05;;;1.88;;
45522;SDS011;31254;51.680;5.394;2023-02-28T12:36:01;2.55;;;1.55;;
45522;SDS011;31254;51.680;5.394;2023-02-28T12:44:04;3.22;;;1.80;;
45522;SDS011;31254;51.680;5.394;2023-02-28T12:46:48;3.22;;;1.50;;
45522;SDS011;31254;51.680;5.394;2023-02-28T12:49:24;3.45;;;1.70;;
45522;SDS011;31254;51.680;5.394;2023-02-28T12:52:11;4.45;;;1.70;;
45522;SDS011;31254;51.680;5.394;2023-02-28T12:54:55;2.83;;;1.58;;
45522;SDS011;31254;51.680;5.394;2023-02-28T13:00:12;4.22;;;1.40;;
45522;SDS011;31254;51.680;5.394;2023-02-28T13:11:32;2.45;;;1.77;;
45522;SDS011;31254;51.680;5.394;2023-02-28T13:19:32;4.63;;;1.90;;
45522;SDS011;31254;51.680;5.394;2023-02-28T13:27:54;3.05;;;1.88;;
45522;SDS011;31254;51.680;5.394;2023-02-28T13:36:21;2.88;;;2.05;;
45522;SDS011;31254;51.680;5.394;2023-02-28T13:38:57;2.72;;;1.70;;
45522;SDS011;31254;51.680;5.394;2023-02-28T13:44:02;2.95;;;1.75;;
45522;SDS011;31254;51.680;5.394;2023-02-28T13:46:34;3.72;;;1.80;;
45522;SDS011;31254;51.680;5.394;2023-02-28T13:51:47;6.75;;;1.85;;
45522;SDS011;31254;51.680;5.394;2023-02-28T13:54:35;3.88;;;1.95;;
45522;SDS011;31254;51.680;5.394;2023-02-28T14:02:51;3.30;;;2.00;;
45522;SDS011;31254;51.680;5.394;2023-02-28T14:05:38;2.65;;;1.50;;
45522;SDS011;31254;51.680;5.394;2023-02-28T14:10:45;2.10;;;1.40;;
45522;SDS011;31254;51.680;5.394;2023-02-28T14:16:13;4.38;;;2.50;;
45522;SDS011;31254;51.680;5.394;2023-02-28T14:19:10;3.42;;;2.17;;
45522;SDS011;31254;51.680;5.394;2023-02-28T14:21:43;7.13;;;2.30;;
45522;SDS011;31254;51.680;5.394;2023-02-28T14:27:24;3.13;;;1.52;;
45522;SDS011;31254;51.680;5.394;2023-02-28T14:38:50;3.13;;;1.80;;
45522;SDS011;31254;51.680;5.394;2023-02-28T14:41:32;5.72;;;2.40;;
45522;SDS011;31254;51.680;5.394;2023-02-28T14:46:53;3.05;;;1.90;;
45522;SDS011;31254;51.680;5.394;2023-02-28T14:49:37;4.35;;;2.60;;
45522;SDS011;31254;51.680;5.394;2023-02-28T14:52:29;3.42;;;1.90;;
45522;SDS011;31254;51.680;5.394;2023-02-28T14:54:59;9.05;;;1.92;;
45522;SDS011;31254;51.680;5.394;2023-02-28T14:57:32;5.10;;;1.80;;
45522;SDS011;31254;51.680;5.394;2023-02-28T15:02:51;3.72;;;2.08;;
45522;SDS011;31254;51.680;5.394;2023-02-28T15:05:30;4.25;;;1.80;;
45522;SDS011;31254;51.680;5.394;2023-02-28T15:08:17;4.65;;;2.35;;
45522;SDS011;31254;51.680;5.394;2023-02-28T15:13:42;9.00;;;1.85;;
45522;SDS011;31254;51.680;5.394;2023-02-28T15:19:12;4.60;;;2.20;;
45522;SDS011;31254;51.680;5.394;2023-02-28T15:21:50;5.07;;;2.33;;
45522;SDS011;31254;51.680;5.394;2023-02-28T15:27:03;5.90;;;2.42;;
45522;SDS011;31254;51.680;5.394;2023-02-28T15:29:42;7.00;;;3.03;;
45522;SDS011;31254;51.680;5.394;2023-02-28T15:38:21;5.53;;;2.38;;
45522;SDS011;31254;51.680;5.394;2023-02-28T15:40:58;4.60;;;2.30;;
45522;SDS011;31254;51.680;5.394;2023-02-28T15:43:32;5.40;;;2.45;;
45522;SDS011;31254;51.680;5.394;2023-02-28T15:46:03;5.75;;;2.20;;
45522;SDS011;31254;51.680;5.394;2023-02-28T15:48:32;6.30;;;2.33;;
45522;SDS011;31254;51.680;5.394;2023-02-28T15:53:30;3.53;;;2.40;;
45522;SDS011;31254;51.680;5.394;2023-02-28T15:56:04;6.03;;;2.22;;
45522;SDS011;31254;51.680;5.394;2023-02-28T15:58:35;4.85;;;2.95;;
45522;SDS011;31254;51.680;5.394;2023-02-28T16:01:05;3.10;;;1.95;;
45522;SDS011;31254;51.680;5.394;2023-02-28T16:03:46;3.85;;;2.20;;
45522;SDS011;31254;51.680;5.394;2023-02-28T16:09:11;6.03;;;1.98;;
45522;SDS011;31254;51.680;5.394;2023-02-28T16:11:45;8.32;;;2.40;;
45522;SDS011;31254;51.680;5.394;2023-02-28T16:14:19;5.07;;;2.87;;
45522;SDS011;31254;51.680;5.394;2023-02-28T16:17:04;4.07;;;2.17;;
45522;SDS011;31254;51.680;5.394;2023-02-28T16:19:37;3.38;;;2.13;;
45522;SDS011;31254;51.680;5.394;2023-02-28T16:22:05;5.28;;;2.25;;
45522;SDS011;31254;51.680;5.394;2023-02-28T16:24:36;5.43;;;2.47;;
45522;SDS011;31254;51.680;5.394;2023-02-28T16:27:31;3.33;;;2.00;;
45522;SDS011;31254;51.680;5.394;2023-02-28T16:30:00;6.88;;;2.17;;
45522;SDS011;31254;51.680;5.394;2023-02-28T16:32:36;4.18;;;2.30;;
45522;SDS011;31254;51.680;5.394;2023-02-28T16:35:05;4.53;;;1.85;;
45522;SDS011;31254;51.680;5.394;2023-02-28T16:37:50;5.57;;;2.37;;
45522;SDS011;31254;51.680;5.394;2023-02-28T16:40:22;4.13;;;2.33;;
45522;SDS011;31254;51.680;5.394;2023-02-28T16:42:52;5.00;;;2.67;;
45522;SDS011;31254;51.680;5.394;2023-02-28T16:45:26;4.67;;;2.23;;
45522;SDS011;31254;51.680;5.394;2023-02-28T16:47:57;6.32;;;2.90;;
45522;SDS011;31254;51.680;5.394;2023-02-28T16:50:26;4.67;;;2.57;;
45522;SDS011;31254;51.680;5.394;2023-02-28T16:52:56;4.97;;;2.70;;
45522;SDS011;31254;51.680;5.394;2023-02-28T16:55:24;4.20;;;2.10;;
45522;SDS011;31254;51.680;5.394;2023-02-28T16:58:13;3.83;;;2.10;;
45522;SDS011;31254;51.680;5.394;2023-02-28T17:00:59;5.27;;;2.83;;
45522;SDS011;31254;51.680;5.394;2023-02-28T17:03:27;5.00;;;3.80;;
45522;SDS011;31254;51.680;5.394;2023-02-28T17:05:59;3.73;;;2.40;;
45522;SDS011;31254;51.680;5.394;2023-02-28T17:08:27;4.97;;;2.40;;
45522;SDS011;31254;51.680;5.394;2023-02-28T17:11:18;6.23;;;2.60;;
45522;SDS011;31254;51.680;5.394;2023-02-28T17:13:49;6.17;;;2.57;;
45522;SDS011;31254;51.680;5.394;2023-02-28T17:19:02;4.23;;;2.50;;
45522;SDS011;31254;51.680;5.394;2023-02-28T17:21:31;6.33;;;2.97;;
45522;SDS011;31254;51.680;5.394;2023-02-28T17:26:50;6.73;;;3.63;;
45522;SDS011;31254;51.680;5.394;2023-02-28T17:29:19;10.47;;;3.83;;
45522;SDS011;31254;51.680;5.394;2023-02-28T17:31:47;7.03;;;3.60;;
45522;SDS011;31254;51.680;5.394;2023-02-28T17:34:14;7.70;;;3.90;;
45522;SDS011;31254;51.680;5.394;2023-02-28T17:36:45;5.53;;;3.27;;
45522;SDS011;31254;51.680;5.394;2023-02-28T17:39:15;13.03;;;3.50;;
45522;SDS011;31254;51.680;5.394;2023-02-28T17:41:53;8.60;;;3.40;;
45522;SDS011;31254;51.680;5.394;2023-02-28T17:44:21;10.10;;;4.13;;
45522;SDS011;31254;51.680;5.394;2023-02-28T17:46:50;6.17;;;3.60;;
45522;SDS011;31254;51.680;5.394;2023-02-28T17:49:18;4.97;;;3.13;;
45522;SDS011;31254;51.680;5.394;2023-02-28T17:51:45;7.70;;;4.05;;
45522;SDS011;31254;51.680;5.394;2023-02-28T17:54:12;9.70;;;4.90;;
45522;SDS011;31254;51.680;5.394;2023-02-28T17:56:40;6.67;;;4.00;;
45522;SDS011;31254;51.680;5.394;2023-02-28T17:59:09;10.10;;;4.53;;
45522;SDS011;31254;51.680;5.394;2023-02-28T18:01:36;5.50;;;3.30;;
45522;SDS011;31254;51.680;5.394;2023-02-28T18:04:03;5.60;;;3.13;;
45522;SDS011;31254;51.680;5.394;2023-02-28T18:09:18;5.87;;;3.60;;
45522;SDS011;31254;51.680;5.394;2023-02-28T18:11:52;8.03;;;3.90;;
45522;SDS011;31254;51.680;5.394;2023-02-28T18:14:20;6.30;;;3.60;;
45522;SDS011;31254;51.680;5.394;2023-02-28T18:16:49;8.40;;;3.77;;
45522;SDS011;31254;51.680;5.394;2023-02-28T18:19:16;5.80;;;3.47;;
45522;SDS011;31254;51.680;5.394;2023-02-28T18:21:44;6.50;;;3.60;;
45522;SDS011;31254;51.680;5.394;2023-02-28T18:24:16;8.83;;;3.80;;
45522;SDS011;31254;51.680;5.394;2023-02-28T18:26:44;13.90;;;7.33;;